ENNA

Banak Airport

Lakselv, Norway
METAR ENNA 220620Z AUTO 18006KT 9999 OVC046/// 02/M03 Q1009 RMK WIND 1800FT 29014KT
Observed Flight Rules
Apr-22 @ 06:20 UTC (39 minutes ago) Visual Flight Rules
Wind Visibility Clouds
180° at 6 knots 10,000+ meters
  • Overcast at 4,600' AGL
Temperatures Readings
Current 2°C / 36°F
Dewpoint -3°C / 27°F
Humidity 70%
Altimeter 29.79" Hg
Pressure 1009 hPa
Elevation 8
METAR ENNA 220620Z AUTO 18006KT 9999 OVC046/// 02/M03 Q1009 RMK WIND 1800FT 29014KT
Observed Flight Rules
Apr-22 @ 06:20 UTC
(39 minutes ago)
VFR
Wind Visibility
180° at 6 knots 10,000+ meters
Clouds
  • Overcast at 4,600' AGL
Temperature Dewpoint
2°C / 36°F -3°C / 27°F
Humidity Altimeter Pressure
70% 29.79" Hg 1009 hPa